sensor_id;sensor_type;location;lat;lon;timestamp;P1;durP1;ratioP1;P2;durP2;ratioP2
42488;SDS011;28118;52.388;9.452;2022-08-26T00:01:38;12.20;;;10.93;;
42488;SDS011;28118;52.388;9.452;2022-08-26T00:04:09;20.30;;;12.73;;
42488;SDS011;28118;52.388;9.452;2022-08-26T00:06:37;11.57;;;10.48;;
42488;SDS011;28118;52.388;9.452;2022-08-26T00:09:11;19.58;;;12.95;;
42488;SDS011;28118;52.388;9.452;2022-08-26T00:11:41;13.25;;;11.88;;
42488;SDS011;28118;52.388;9.452;2022-08-26T00:14:08;18.23;;;14.13;;
42488;SDS011;28118;52.388;9.452;2022-08-26T00:16:35;16.15;;;13.82;;
42488;SDS011;28118;52.388;9.452;2022-08-26T00:19:06;19.20;;;13.88;;
42488;SDS011;28118;52.388;9.452;2022-08-26T00:21:33;20.35;;;12.70;;
42488;SDS011;28118;52.388;9.452;2022-08-26T00:24:03;18.77;;;13.65;;
42488;SDS011;28118;52.388;9.452;2022-08-26T00:26:30;22.55;;;13.68;;
42488;SDS011;28118;52.388;9.452;2022-08-26T00:28:59;16.67;;;13.85;;
42488;SDS011;28118;52.388;9.452;2022-08-26T00:31:26;15.75;;;13.48;;
42488;SDS011;28118;52.388;9.452;2022-08-26T00:33:56;15.10;;;12.80;;
42488;SDS011;28118;52.388;9.452;2022-08-26T00:36:23;20.10;;;14.65;;
42488;SDS011;28118;52.388;9.452;2022-08-26T00:38:54;22.00;;;13.32;;
42488;SDS011;28118;52.388;9.452;2022-08-26T00:41:21;23.13;;;14.15;;
42488;SDS011;28118;52.388;9.452;2022-08-26T00:43:48;14.30;;;12.93;;
42488;SDS011;28118;52.388;9.452;2022-08-26T00:46:18;21.75;;;14.88;;
42488;SDS011;28118;52.388;9.452;2022-08-26T00:48:59;19.58;;;12.50;;
42488;SDS011;28118;52.388;9.452;2022-08-26T00:51:39;16.15;;;12.75;;
42488;SDS011;28118;52.388;9.452;2022-08-26T00:54:10;15.43;;;12.80;;
42488;SDS011;28118;52.388;9.452;2022-08-26T00:56:49;18.23;;;14.52;;
42488;SDS011;28118;52.388;9.452;2022-08-26T00:59:21;17.33;;;12.02;;
42488;SDS011;28118;52.388;9.452;2022-08-26T01:01:49;14.60;;;13.13;;
42488;SDS011;28118;52.388;9.452;2022-08-26T01:04:17;17.77;;;13.30;;
42488;SDS011;28118;52.388;9.452;2022-08-26T01:06:47;15.20;;;13.80;;
42488;SDS011;28118;52.388;9.452;2022-08-26T01:09:17;14.93;;;13.57;;
42488;SDS011;28118;52.388;9.452;2022-08-26T01:11:46;17.55;;;13.40;;
42488;SDS011;28118;52.388;9.452;2022-08-26T01:14:15;18.08;;;14.18;;
42488;SDS011;28118;52.388;9.452;2022-08-26T01:16:45;26.83;;;17.15;;
42488;SDS011;28118;52.388;9.452;2022-08-26T01:19:30;15.02;;;13.48;;
42488;SDS011;28118;52.388;9.452;2022-08-26T01:22:07;16.17;;;11.63;;
42488;SDS011;28118;52.388;9.452;2022-08-26T01:24:59;16.25;;;14.68;;
42488;SDS011;28118;52.388;9.452;2022-08-26T01:27:28;21.95;;;17.80;;
42488;SDS011;28118;52.388;9.452;2022-08-26T01:29:59;15.10;;;13.60;;
42488;SDS011;28118;52.388;9.452;2022-08-26T01:32:27;16.25;;;13.95;;
42488;SDS011;28118;52.388;9.452;2022-08-26T01:34:57;16.77;;;15.18;;
42488;SDS011;28118;52.388;9.452;2022-08-26T01:37:25;25.90;;;16.23;;
42488;SDS011;28118;52.388;9.452;2022-08-26T01:39:54;16.77;;;15.05;;
42488;SDS011;28118;52.388;9.452;2022-08-26T01:42:23;30.23;;;16.83;;
42488;SDS011;28118;52.388;9.452;2022-08-26T01:44:51;15.80;;;14.20;;
42488;SDS011;28118;52.388;9.452;2022-08-26T01:47:32;20.45;;;15.05;;
42488;SDS011;28118;52.388;9.452;2022-08-26T01:50:04;30.55;;;15.02;;
42488;SDS011;28118;52.388;9.452;2022-08-26T01:52:34;24.80;;;14.88;;
42488;SDS011;28118;52.388;9.452;2022-08-26T01:55:08;19.85;;;16.60;;
42488;SDS011;28118;52.388;9.452;2022-08-26T01:57:36;21.30;;;15.43;;
42488;SDS011;28118;52.388;9.452;2022-08-26T02:00:04;20.23;;;14.80;;
42488;SDS011;28118;52.388;9.452;2022-08-26T02:02:33;15.57;;;14.07;;
42488;SDS011;28118;52.388;9.452;2022-08-26T02:05:03;16.00;;;13.35;;
42488;SDS011;28118;52.388;9.452;2022-08-26T02:07:31;22.73;;;13.77;;
42488;SDS011;28118;52.388;9.452;2022-08-26T02:09:58;18.77;;;13.27;;
42488;SDS011;28118;52.388;9.452;2022-08-26T02:12:25;18.73;;;11.68;;
42488;SDS011;28118;52.388;9.452;2022-08-26T02:14:53;16.10;;;13.30;;
42488;SDS011;28118;52.388;9.452;2022-08-26T02:17:25;15.88;;;14.32;;
42488;SDS011;28118;52.388;9.452;2022-08-26T02:19:59;18.73;;;13.65;;
42488;SDS011;28118;52.388;9.452;2022-08-26T02:22:27;23.90;;;17.00;;
42488;SDS011;28118;52.388;9.452;2022-08-26T02:25:08;18.60;;;16.67;;
42488;SDS011;28118;52.388;9.452;2022-08-26T02:28:02;16.58;;;14.57;;
42488;SDS011;28118;52.388;9.452;2022-08-26T02:30:30;19.45;;;14.95;;
42488;SDS011;28118;52.388;9.452;2022-08-26T02:33:00;20.02;;;14.52;;
42488;SDS011;28118;52.388;9.452;2022-08-26T02:35:31;20.35;;;15.93;;
42488;SDS011;28118;52.388;9.452;2022-08-26T02:37:58;21.25;;;15.13;;
42488;SDS011;28118;52.388;9.452;2022-08-26T02:40:27;19.05;;;14.02;;
42488;SDS011;28118;52.388;9.452;2022-08-26T02:42:56;21.25;;;18.17;;
42488;SDS011;28118;52.388;9.452;2022-08-26T02:45:23;15.48;;;13.70;;
42488;SDS011;28118;52.388;9.452;2022-08-26T02:47:54;19.15;;;15.43;;
42488;SDS011;28118;52.388;9.452;2022-08-26T02:50:25;17.02;;;12.90;;
42488;SDS011;28118;52.388;9.452;2022-08-26T02:52:52;18.05;;;16.30;;
42488;SDS011;28118;52.388;9.452;2022-08-26T02:55:19;18.08;;;15.27;;
42488;SDS011;28118;52.388;9.452;2022-08-26T02:57:49;22.70;;;16.98;;
42488;SDS011;28118;52.388;9.452;2022-08-26T03:00:17;23.85;;;17.30;;
42488;SDS011;28118;52.388;9.452;2022-08-26T03:02:44;18.50;;;15.77;;
42488;SDS011;28118;52.388;9.452;2022-08-26T03:05:11;20.55;;;14.02;;
42488;SDS011;28118;52.388;9.452;2022-08-26T03:07:38;20.45;;;15.32;;
42488;SDS011;28118;52.388;9.452;2022-08-26T03:10:05;21.02;;;16.77;;
42488;SDS011;28118;52.388;9.452;2022-08-26T03:12:34;24.00;;;17.77;;
42488;SDS011;28118;52.388;9.452;2022-08-26T03:15:01;19.13;;;14.80;;
42488;SDS011;28118;52.388;9.452;2022-08-26T03:17:43;17.52;;;16.00;;
42488;SDS011;28118;52.388;9.452;2022-08-26T03:20:11;22.20;;;17.77;;
42488;SDS011;28118;52.388;9.452;2022-08-26T03:22:40;20.73;;;18.35;;
42488;SDS011;28118;52.388;9.452;2022-08-26T03:25:08;23.60;;;18.02;;
42488;SDS011;28118;52.388;9.452;2022-08-26T03:27:36;21.10;;;18.88;;
42488;SDS011;28118;52.388;9.452;2022-08-26T03:30:04;31.40;;;20.27;;
42488;SDS011;28118;52.388;9.452;2022-08-26T03:32:51;21.23;;;19.10;;
42488;SDS011;28118;52.388;9.452;2022-08-26T03:35:18;21.67;;;18.15;;
42488;SDS011;28118;52.388;9.452;2022-08-26T03:37:47;28.77;;;17.63;;
42488;SDS011;28118;52.388;9.452;2022-08-26T03:40:14;20.65;;;16.30;;
42488;SDS011;28118;52.388;9.452;2022-08-26T03:42:45;23.13;;;18.10;;
42488;SDS011;28118;52.388;9.452;2022-08-26T03:45:14;22.20;;;16.40;;
42488;SDS011;28118;52.388;9.452;2022-08-26T03:47:41;26.02;;;17.92;;
42488;SDS011;28118;52.388;9.452;2022-08-26T03:50:10;19.65;;;15.57;;
42488;SDS011;28118;52.388;9.452;2022-08-26T03:52:39;21.00;;;14.65;;
42488;SDS011;28118;52.388;9.452;2022-08-26T03:55:09;18.45;;;15.75;;
42488;SDS011;28118;52.388;9.452;2022-08-26T03:57:36;17.35;;;15.45;;
42488;SDS011;28118;52.388;9.452;2022-08-26T04:00:04;18.67;;;14.52;;
42488;SDS011;28118;52.388;9.452;2022-08-26T04:02:32;26.65;;;16.08;;
42488;SDS011;28118;52.388;9.452;2022-08-26T04:04:59;17.75;;;16.05;;
42488;SDS011;28118;52.388;9.452;2022-08-26T04:07:25;21.08;;;16.23;;
42488;SDS011;28118;52.388;9.452;2022-08-26T04:09:55;17.67;;;15.98;;
42488;SDS011;28118;52.388;9.452;2022-08-26T04:12:23;25.48;;;17.13;;
42488;SDS011;28118;52.388;9.452;2022-08-26T04:14:52;14.65;;;13.07;;
42488;SDS011;28118;52.388;9.452;2022-08-26T04:17:18;26.83;;;16.17;;
42488;SDS011;28118;52.388;9.452;2022-08-26T04:19:51;19.13;;;13.50;;
42488;SDS011;28118;52.388;9.452;2022-08-26T04:22:19;15.32;;;13.90;;
42488;SDS011;28118;52.388;9.452;2022-08-26T04:24:50;17.08;;;13.60;;
42488;SDS011;28118;52.388;9.452;2022-08-26T04:27:17;17.73;;;16.10;;
42488;SDS011;28118;52.388;9.452;2022-08-26T04:29:44;22.45;;;14.43;;
42488;SDS011;28118;52.388;9.452;2022-08-26T04:32:13;18.50;;;16.17;;
42488;SDS011;28118;52.388;9.452;2022-08-26T04:34:41;22.95;;;16.88;;
42488;SDS011;28118;52.388;9.452;2022-08-26T04:37:10;21.10;;;15.10;;
42488;SDS011;28118;52.388;9.452;2022-08-26T04:39:36;24.00;;;15.23;;
42488;SDS011;28118;52.388;9.452;2022-08-26T04:42:03;22.23;;;15.07;;
42488;SDS011;28118;52.388;9.452;2022-08-26T04:44:32;15.63;;;13.38;;
42488;SDS011;28118;52.388;9.452;2022-08-26T04:47:00;22.48;;;14.80;;
42488;SDS011;28118;52.388;9.452;2022-08-26T04:49:28;19.33;;;14.70;;
42488;SDS011;28118;52.388;9.452;2022-08-26T04:52:00;16.10;;;13.70;;
42488;SDS011;28118;52.388;9.452;2022-08-26T04:54:28;25.65;;;15.65;;
42488;SDS011;28118;52.388;9.452;2022-08-26T04:56:55;15.93;;;14.30;;
42488;SDS011;28118;52.388;9.452;2022-08-26T04:59:23;20.73;;;15.07;;
42488;SDS011;28118;52.388;9.452;2022-08-26T05:01:50;22.98;;;15.35;;
42488;SDS011;28118;52.388;9.452;2022-08-26T05:04:21;16.93;;;15.23;;
42488;SDS011;28118;52.388;9.452;2022-08-26T05:06:48;18.35;;;15.60;;
42488;SDS011;28118;52.388;9.452;2022-08-26T05:09:17;26.50;;;14.05;;
42488;SDS011;28118;52.388;9.452;2022-08-26T05:11:44;32.92;;;15.20;;
42488;SDS011;28118;52.388;9.452;2022-08-26T05:14:17;22.65;;;16.65;;
42488;SDS011;28118;52.388;9.452;2022-08-26T05:16:45;22.77;;;14.52;;
42488;SDS011;28118;52.388;9.452;2022-08-26T05:19:13;26.70;;;18.33;;
42488;SDS011;28118;52.388;9.452;2022-08-26T05:21:44;18.83;;;14.60;;
42488;SDS011;28118;52.388;9.452;2022-08-26T05:24:12;19.50;;;15.43;;
42488;SDS011;28118;52.388;9.452;2022-08-26T05:26:39;17.42;;;15.70;;
42488;SDS011;28118;52.388;9.452;2022-08-26T05:29:06;26.67;;;15.40;;
42488;SDS011;28118;52.388;9.452;2022-08-26T05:31:33;18.65;;;16.52;;
42488;SDS011;28118;52.388;9.452;2022-08-26T05:34:01;30.58;;;22.98;;
42488;SDS011;28118;52.388;9.452;2022-08-26T05:36:30;19.02;;;16.45;;
42488;SDS011;28118;52.388;9.452;2022-08-26T05:39:00;27.73;;;17.73;;
42488;SDS011;28118;52.388;9.452;2022-08-26T05:41:29;17.67;;;15.55;;
42488;SDS011;28118;52.388;9.452;2022-08-26T05:44:02;24.40;;;14.75;;
42488;SDS011;28118;52.388;9.452;2022-08-26T05:46:31;36.85;;;16.15;;
42488;SDS011;28118;52.388;9.452;2022-08-26T05:49:00;14.60;;;13.27;;
42488;SDS011;28118;52.388;9.452;2022-08-26T05:51:28;15.90;;;14.30;;
42488;SDS011;28118;52.388;9.452;2022-08-26T05:53:56;30.95;;;15.73;;
42488;SDS011;28118;52.388;9.452;2022-08-26T05:56:23;16.25;;;13.95;;
42488;SDS011;28118;52.388;9.452;2022-08-26T05:58:52;18.10;;;14.73;;
42488;SDS011;28118;52.388;9.452;2022-08-26T06:01:21;21.48;;;15.88;;
42488;SDS011;28118;52.388;9.452;2022-08-26T06:03:54;34.97;;;16.65;;
42488;SDS011;28118;52.388;9.452;2022-08-26T06:06:28;20.23;;;16.35;;
42488;SDS011;28118;52.388;9.452;2022-08-26T06:08:57;20.20;;;15.65;;
42488;SDS011;28118;52.388;9.452;2022-08-26T06:11:26;16.20;;;13.27;;
42488;SDS011;28118;52.388;9.452;2022-08-26T06:13:55;21.73;;;16.77;;
42488;SDS011;28118;52.388;9.452;2022-08-26T06:16:29;19.25;;;15.18;;
42488;SDS011;28118;52.388;9.452;2022-08-26T06:18:57;20.80;;;13.38;;
42488;SDS011;28118;52.388;9.452;2022-08-26T06:21:26;16.48;;;14.77;;
42488;SDS011;28118;52.388;9.452;2022-08-26T06:23:58;25.70;;;14.55;;
42488;SDS011;28118;52.388;9.452;2022-08-26T06:26:53;18.00;;;16.02;;
42488;SDS011;28118;52.388;9.452;2022-08-26T06:29:23;27.23;;;16.30;;
42488;SDS011;28118;52.388;9.452;2022-08-26T06:31:51;28.88;;;18.45;;
42488;SDS011;28118;52.388;9.452;2022-08-26T06:34:21;28.83;;;17.33;;
42488;SDS011;28118;52.388;9.452;2022-08-26T06:36:55;18.75;;;16.33;;
42488;SDS011;28118;52.388;9.452;2022-08-26T06:39:24;28.65;;;18.10;;
42488;SDS011;28118;52.388;9.452;2022-08-26T06:41:50;22.35;;;16.23;;
42488;SDS011;28118;52.388;9.452;2022-08-26T06:44:17;23.75;;;16.73;;
42488;SDS011;28118;52.388;9.452;2022-08-26T06:46:44;24.35;;;18.13;;
42488;SDS011;28118;52.388;9.452;2022-08-26T06:49:15;29.90;;;19.23;;
42488;SDS011;28118;52.388;9.452;2022-08-26T06:51:42;21.65;;;19.48;;
42488;SDS011;28118;52.388;9.452;2022-08-26T06:54:09;18.50;;;16.35;;
42488;SDS011;28118;52.388;9.452;2022-08-26T06:56:38;24.30;;;20.15;;
42488;SDS011;28118;52.388;9.452;2022-08-26T06:59:06;23.02;;;17.25;;
42488;SDS011;28118;52.388;9.452;2022-08-26T07:01:36;20.08;;;15.38;;
42488;SDS011;28118;52.388;9.452;2022-08-26T07:04:09;20.27;;;18.30;;
42488;SDS011;28118;52.388;9.452;2022-08-26T07:06:41;37.25;;;18.55;;
42488;SDS011;28118;52.388;9.452;2022-08-26T07:09:12;23.00;;;19.80;;
42488;SDS011;28118;52.388;9.452;2022-08-26T07:11:39;32.75;;;18.40;;
42488;SDS011;28118;52.388;9.452;2022-08-26T07:14:06;28.90;;;18.90;;
42488;SDS011;28118;52.388;9.452;2022-08-26T07:16:34;30.95;;;18.25;;
42488;SDS011;28118;52.388;9.452;2022-08-26T07:19:01;27.60;;;16.45;;
42488;SDS011;28118;52.388;9.452;2022-08-26T07:21:37;30.35;;;17.88;;
42488;SDS011;28118;52.388;9.452;2022-08-26T07:24:06;16.20;;;14.52;;
42488;SDS011;28118;52.388;9.452;2022-08-26T07:26:36;19.85;;;17.65;;
42488;SDS011;28118;52.388;9.452;2022-08-26T07:29:03;19.08;;;14.98;;
42488;SDS011;28118;52.388;9.452;2022-08-26T07:31:31;29.08;;;16.25;;
42488;SDS011;28118;52.388;9.452;2022-08-26T07:34:08;15.15;;;12.05;;
42488;SDS011;28118;52.388;9.452;2022-08-26T07:36:35;23.02;;;13.40;;
42488;SDS011;28118;52.388;9.452;2022-08-26T07:39:02;22.05;;;15.40;;
42488;SDS011;28118;52.388;9.452;2022-08-26T07:41:29;24.85;;;16.20;;
42488;SDS011;28118;52.388;9.452;2022-08-26T07:43:57;21.15;;;14.65;;
42488;SDS011;28118;52.388;9.452;2022-08-26T07:46:24;20.00;;;16.27;;
42488;SDS011;28118;52.388;9.452;2022-08-26T07:48:55;27.17;;;15.68;;
42488;SDS011;28118;52.388;9.452;2022-08-26T07:51:22;30.08;;;15.90;;
42488;SDS011;28118;52.388;9.452;2022-08-26T07:53:50;20.08;;;16.58;;
42488;SDS011;28118;52.388;9.452;2022-08-26T07:56:19;17.77;;;14.75;;
42488;SDS011;28118;52.388;9.452;2022-08-26T07:58:48;25.85;;;14.52;;
42488;SDS011;28118;52.388;9.452;2022-08-26T08:01:18;18.27;;;14.27;;
42488;SDS011;28118;52.388;9.452;2022-08-26T08:03:45;19.38;;;13.90;;
42488;SDS011;28118;52.388;9.452;2022-08-26T08:06:19;16.00;;;12.40;;
42488;SDS011;28118;52.388;9.452;2022-08-26T08:08:52;34.08;;;14.15;;
42488;SDS011;28118;52.388;9.452;2022-08-26T08:11:19;16.30;;;13.48;;
42488;SDS011;28118;52.388;9.452;2022-08-26T08:13:47;17.67;;;14.55;;
42488;SDS011;28118;52.388;9.452;2022-08-26T08:16:22;21.48;;;12.23;;
42488;SDS011;28118;52.388;9.452;2022-08-26T08:18:51;23.55;;;15.57;;
42488;SDS011;28118;52.388;9.452;2022-08-26T08:21:18;17.10;;;14.95;;
42488;SDS011;28118;52.388;9.452;2022-08-26T08:23:48;21.65;;;14.43;;
42488;SDS011;28118;52.388;9.452;2022-08-26T08:26:16;23.30;;;14.18;;
42488;SDS011;28118;52.388;9.452;2022-08-26T08:28:43;16.95;;;15.27;;
42488;SDS011;28118;52.388;9.452;2022-08-26T08:31:23;23.92;;;15.98;;
42488;SDS011;28118;52.388;9.452;2022-08-26T08:34:12;21.55;;;14.40;;
42488;SDS011;28118;52.388;9.452;2022-08-26T08:36:40;19.42;;;15.82;;
42488;SDS011;28118;52.388;9.452;2022-08-26T08:39:07;22.70;;;14.75;;
42488;SDS011;28118;52.388;9.452;2022-08-26T08:44:17;18.13;;;15.15;;
42488;SDS011;28118;52.388;9.452;2022-08-26T08:46:49;20.05;;;12.60;;
42488;SDS011;28118;52.388;9.452;2022-08-26T08:51:49;26.35;;;12.93;;
42488;SDS011;28118;52.388;9.452;2022-08-26T08:54:21;17.90;;;15.30;;
42488;SDS011;28118;52.388;9.452;2022-08-26T08:56:49;23.95;;;14.77;;
42488;SDS011;28118;52.388;9.452;2022-08-26T08:59:38;25.58;;;13.20;;
42488;SDS011;28118;52.388;9.452;2022-08-26T09:02:19;26.60;;;13.40;;
42488;SDS011;28118;52.388;9.452;2022-08-26T09:05:19;19.02;;;14.40;;
42488;SDS011;28118;52.388;9.452;2022-08-26T09:07:49;24.40;;;11.85;;
42488;SDS011;28118;52.388;9.452;2022-08-26T09:10:40;21.55;;;11.27;;
42488;SDS011;28118;52.388;9.452;2022-08-26T09:13:13;29.92;;;13.75;;
42488;SDS011;28118;52.388;9.452;2022-08-26T09:18:57;20.30;;;11.73;;
42488;SDS011;28118;52.388;9.452;2022-08-26T09:21:26;14.50;;;11.13;;
42488;SDS011;28118;52.388;9.452;2022-08-26T09:23:55;18.10;;;12.27;;
42488;SDS011;28118;52.388;9.452;2022-08-26T09:26:27;18.33;;;10.45;;
42488;SDS011;28118;52.388;9.452;2022-08-26T09:31:52;21.58;;;12.27;;
42488;SDS011;28118;52.388;9.452;2022-08-26T09:35:00;29.90;;;11.65;;
42488;SDS011;28118;52.388;9.452;2022-08-26T09:40:14;20.98;;;12.07;;
42488;SDS011;28118;52.388;9.452;2022-08-26T09:45:45;16.40;;;11.82;;
42488;SDS011;28118;52.388;9.452;2022-08-26T09:48:30;16.25;;;11.45;;
42488;SDS011;28118;52.388;9.452;2022-08-26T09:51:02;27.27;;;14.00;;
42488;SDS011;28118;52.388;9.452;2022-08-26T09:53:33;21.05;;;13.18;;
42488;SDS011;28118;52.388;9.452;2022-08-26T09:56:15;24.92;;;11.15;;
42488;SDS011;28118;52.388;9.452;2022-08-26T09:58:53;15.95;;;12.80;;
42488;SDS011;28118;52.388;9.452;2022-08-26T10:04:05;18.98;;;13.52;;
42488;SDS011;28118;52.388;9.452;2022-08-26T10:09:23;21.80;;;12.57;;
42488;SDS011;28118;52.388;9.452;2022-08-26T10:11:51;29.08;;;13.30;;
42488;SDS011;28118;52.388;9.452;2022-08-26T10:14:29;18.15;;;12.50;;
42488;SDS011;28118;52.388;9.452;2022-08-26T10:19:39;11.98;;;9.95;;
42488;SDS011;28118;52.388;9.452;2022-08-26T10:22:28;15.27;;;11.48;;
42488;SDS011;28118;52.388;9.452;2022-08-26T10:24:58;18.80;;;9.55;;
42488;SDS011;28118;52.388;9.452;2022-08-26T10:27:42;23.98;;;10.40;;
42488;SDS011;28118;52.388;9.452;2022-08-26T10:30:21;17.90;;;10.25;;
42488;SDS011;28118;52.388;9.452;2022-08-26T10:32:50;15.40;;;11.63;;
42488;SDS011;28118;52.388;9.452;2022-08-26T10:35:20;22.45;;;12.50;;
42488;SDS011;28118;52.388;9.452;2022-08-26T10:37:54;17.50;;;10.85;;
42488;SDS011;28118;52.388;9.452;2022-08-26T10:40:26;19.30;;;12.80;;
42488;SDS011;28118;52.388;9.452;2022-08-26T10:43:08;15.07;;;12.35;;
42488;SDS011;28118;52.388;9.452;2022-08-26T10:45:42;23.02;;;12.63;;
42488;SDS011;28118;52.388;9.452;2022-08-26T10:50:44;19.90;;;9.50;;
42488;SDS011;28118;52.388;9.452;2022-08-26T10:53:16;14.15;;;9.75;;
42488;SDS011;28118;52.388;9.452;2022-08-26T10:56:13;17.50;;;10.32;;
42488;SDS011;28118;52.388;9.452;2022-08-26T11:06:47;15.27;;;9.88;;
42488;SDS011;28118;52.388;9.452;2022-08-26T11:09:41;12.05;;;9.35;;
42488;SDS011;28118;52.388;9.452;2022-08-26T11:15:09;15.85;;;9.93;;
42488;SDS011;28118;52.388;9.452;2022-08-26T11:22:53;19.83;;;10.85;;
42488;SDS011;28118;52.388;9.452;2022-08-26T11:25:25;14.93;;;11.13;;
42488;SDS011;28118;52.388;9.452;2022-08-26T11:27:59;26.52;;;12.52;;
42488;SDS011;28118;52.388;9.452;2022-08-26T11:30:37;15.32;;;9.95;;
42488;SDS011;28118;52.388;9.452;2022-08-26T11:40:53;14.63;;;10.52;;
42488;SDS011;28118;52.388;9.452;2022-08-26T11:43:23;12.10;;;8.55;;
42488;SDS011;28118;52.388;9.452;2022-08-26T11:46:00;11.82;;;8.23;;
42488;SDS011;28118;52.388;9.452;2022-08-26T11:48:35;12.48;;;9.70;;
42488;SDS011;28118;52.388;9.452;2022-08-26T11:51:07;18.05;;;10.07;;
42488;SDS011;28118;52.388;9.452;2022-08-26T11:56:08;18.75;;;9.38;;
42488;SDS011;28118;52.388;9.452;2022-08-26T11:58:41;23.83;;;9.07;;
42488;SDS011;28118;52.388;9.452;2022-08-26T12:01:10;18.63;;;9.05;;
42488;SDS011;28118;52.388;9.452;2022-08-26T12:03:47;12.88;;;7.80;;
42488;SDS011;28118;52.388;9.452;2022-08-26T12:06:26;11.70;;;7.90;;
42488;SDS011;28118;52.388;9.452;2022-08-26T12:09:11;18.52;;;7.53;;
42488;SDS011;28118;52.388;9.452;2022-08-26T12:11:45;14.93;;;8.98;;
42488;SDS011;28118;52.388;9.452;2022-08-26T12:14:22;8.13;;;7.43;;
42488;SDS011;28118;52.388;9.452;2022-08-26T12:16:50;8.02;;;7.25;;
42488;SDS011;28118;52.388;9.452;2022-08-26T12:19:29;14.63;;;8.88;;
42488;SDS011;28118;52.388;9.452;2022-08-26T12:22:03;16.00;;;9.98;;
42488;SDS011;28118;52.388;9.452;2022-08-26T12:24:47;21.50;;;9.52;;
42488;SDS011;28118;52.388;9.452;2022-08-26T12:27:17;9.88;;;7.93;;
42488;SDS011;28118;52.388;9.452;2022-08-26T12:30:12;8.88;;;7.40;;
42488;SDS011;28118;52.388;9.452;2022-08-26T12:32:47;10.75;;;6.82;;
42488;SDS011;28118;52.388;9.452;2022-08-26T12:35:24;4.90;;;4.47;;
42488;SDS011;28118;52.388;9.452;2022-08-26T12:37:52;7.07;;;5.93;;
42488;SDS011;28118;52.388;9.452;2022-08-26T12:40:24;6.13;;;5.55;;
42488;SDS011;28118;52.388;9.452;2022-08-26T12:42:56;9.23;;;6.28;;
42488;SDS011;28118;52.388;9.452;2022-08-26T12:45:33;7.57;;;6.05;;
42488;SDS011;28118;52.388;9.452;2022-08-26T12:48:24;8.02;;;7.20;;
42488;SDS011;28118;52.388;9.452;2022-08-26T12:50:51;10.00;;;6.68;;
42488;SDS011;28118;52.388;9.452;2022-08-26T12:55:52;13.52;;;7.55;;
42488;SDS011;28118;52.388;9.452;2022-08-26T12:58:36;14.05;;;7.40;;
42488;SDS011;28118;52.388;9.452;2022-08-26T13:11:30;10.32;;;6.80;;
42488;SDS011;28118;52.388;9.452;2022-08-26T13:14:03;10.55;;;7.90;;
42488;SDS011;28118;52.388;9.452;2022-08-26T13:16:49;6.13;;;5.53;;
42488;SDS011;28118;52.388;9.452;2022-08-26T13:19:18;13.50;;;8.88;;
42488;SDS011;28118;52.388;9.452;2022-08-26T13:21:54;23.27;;;10.02;;
42488;SDS011;28118;52.388;9.452;2022-08-26T13:24:27;17.77;;;9.00;;
42488;SDS011;28118;52.388;9.452;2022-08-26T13:27:01;19.30;;;9.52;;
42488;SDS011;28118;52.388;9.452;2022-08-26T13:29:29;31.73;;;10.85;;
42488;SDS011;28118;52.388;9.452;2022-08-26T13:31:56;14.10;;;9.32;;
42488;SDS011;28118;52.388;9.452;2022-08-26T13:34:23;24.67;;;11.27;;
42488;SDS011;28118;52.388;9.452;2022-08-26T13:36:52;20.08;;;11.25;;
42488;SDS011;28118;52.388;9.452;2022-08-26T13:39:20;22.05;;;10.30;;
42488;SDS011;28118;52.388;9.452;2022-08-26T13:41:47;13.10;;;8.77;;
42488;SDS011;28118;52.388;9.452;2022-08-26T13:44:14;12.02;;;8.60;;
42488;SDS011;28118;52.388;9.452;2022-08-26T13:46:41;24.60;;;10.75;;
42488;SDS011;28118;52.388;9.452;2022-08-26T13:51:40;12.23;;;11.02;;
42488;SDS011;28118;52.388;9.452;2022-08-26T13:54:07;12.55;;;10.10;;
42488;SDS011;28118;52.388;9.452;2022-08-26T13:56:34;27.48;;;12.00;;
42488;SDS011;28118;52.388;9.452;2022-08-26T13:59:01;16.65;;;11.45;;
42488;SDS011;28118;52.388;9.452;2022-08-26T14:01:29;18.65;;;12.70;;
42488;SDS011;28118;52.388;9.452;2022-08-26T14:03:57;21.83;;;10.80;;
42488;SDS011;28118;52.388;9.452;2022-08-26T14:06:24;20.40;;;13.45;;
42488;SDS011;28118;52.388;9.452;2022-08-26T14:08:50;14.65;;;12.30;;
42488;SDS011;28118;52.388;9.452;2022-08-26T14:11:18;18.67;;;11.35;;
42488;SDS011;28118;52.388;9.452;2022-08-26T14:13:46;18.00;;;11.73;;
42488;SDS011;28118;52.388;9.452;2022-08-26T14:16:19;12.65;;;9.98;;
42488;SDS011;28118;52.388;9.452;2022-08-26T14:18:58;23.23;;;11.93;;
42488;SDS011;28118;52.388;9.452;2022-08-26T14:21:30;23.98;;;12.25;;
42488;SDS011;28118;52.388;9.452;2022-08-26T14:23:58;27.05;;;10.88;;
42488;SDS011;28118;52.388;9.452;2022-08-26T14:26:26;19.60;;;11.80;;
42488;SDS011;28118;52.388;9.452;2022-08-26T14:28:58;18.35;;;11.82;;
42488;SDS011;28118;52.388;9.452;2022-08-26T14:31:26;22.80;;;10.88;;
42488;SDS011;28118;52.388;9.452;2022-08-26T14:33:59;17.67;;;12.07;;
42488;SDS011;28118;52.388;9.452;2022-08-26T14:36:28;13.85;;;12.00;;
42488;SDS011;28118;52.388;9.452;2022-08-26T14:39:00;11.90;;;10.43;;
42488;SDS011;28118;52.388;9.452;2022-08-26T14:41:32;18.30;;;10.63;;
42488;SDS011;28118;52.388;9.452;2022-08-26T14:44:05;21.08;;;10.70;;
42488;SDS011;28118;52.388;9.452;2022-08-26T14:46:38;13.77;;;11.15;;
42488;SDS011;28118;52.388;9.452;2022-08-26T14:49:09;39.65;;;11.73;;
42488;SDS011;28118;52.388;9.452;2022-08-26T14:51:37;24.25;;;11.43;;
42488;SDS011;28118;52.388;9.452;2022-08-26T14:54:06;22.15;;;13.57;;
42488;SDS011;28118;52.388;9.452;2022-08-26T14:56:57;17.65;;;11.30;;
42488;SDS011;28118;52.388;9.452;2022-08-26T14:59:27;15.85;;;12.90;;
42488;SDS011;28118;52.388;9.452;2022-08-26T15:01:57;11.25;;;10.25;;
42488;SDS011;28118;52.388;9.452;2022-08-26T15:04:25;11.40;;;10.32;;
42488;SDS011;28118;52.388;9.452;2022-08-26T15:06:53;14.73;;;9.88;;
42488;SDS011;28118;52.388;9.452;2022-08-26T15:09:21;11.57;;;10.55;;
42488;SDS011;28118;52.388;9.452;2022-08-26T15:11:49;12.65;;;11.48;;
42488;SDS011;28118;52.388;9.452;2022-08-26T15:14:16;12.85;;;11.07;;
42488;SDS011;28118;52.388;9.452;2022-08-26T15:16:45;19.60;;;11.95;;
42488;SDS011;28118;52.388;9.452;2022-08-26T15:19:17;16.10;;;12.35;;
42488;SDS011;28118;52.388;9.452;2022-08-26T15:21:45;21.65;;;12.02;;
42488;SDS011;28118;52.388;9.452;2022-08-26T15:24:13;18.45;;;13.05;;
42488;SDS011;28118;52.388;9.452;2022-08-26T15:26:41;11.70;;;10.65;;
42488;SDS011;28118;52.388;9.452;2022-08-26T15:29:09;12.57;;;11.25;;
42488;SDS011;28118;52.388;9.452;2022-08-26T15:31:35;14.77;;;11.40;;
42488;SDS011;28118;52.388;9.452;2022-08-26T15:34:03;12.48;;;11.20;;
42488;SDS011;28118;52.388;9.452;2022-08-26T15:36:33;19.75;;;12.38;;
42488;SDS011;28118;52.388;9.452;2022-08-26T15:39:04;21.92;;;11.20;;
42488;SDS011;28118;52.388;9.452;2022-08-26T15:41:32;17.73;;;12.40;;
42488;SDS011;28118;52.388;9.452;2022-08-26T15:44:00;12.23;;;11.07;;
42488;SDS011;28118;52.388;9.452;2022-08-26T15:46:28;14.10;;;12.27;;
42488;SDS011;28118;52.388;9.452;2022-08-26T15:48:56;18.60;;;11.50;;
42488;SDS011;28118;52.388;9.452;2022-08-26T15:51:25;26.15;;;14.15;;
42488;SDS011;28118;52.388;9.452;2022-08-26T15:53:55;20.50;;;12.20;;
42488;SDS011;28118;52.388;9.452;2022-08-26T15:56:23;20.10;;;11.88;;